sensor_id;sensor_type;location;lat;lon;timestamp;pressure;altitude;pressure_sealevel;temperature;humidity
44920;BME280;30655;53.094;6.072;2023-02-04T00:00:43;103193.34;;;7.25;98.80
44920;BME280;30655;53.094;6.072;2023-02-04T00:03:11;103068.13;;;6.51;98.73
44920;BME280;30655;53.094;6.072;2023-02-04T00:05:38;103251.28;;;7.57;98.76
44920;BME280;30655;53.094;6.072;2023-02-04T00:08:06;103232.09;;;7.45;98.68
44920;BME280;30655;53.094;6.072;2023-02-04T00:10:35;103227.28;;;7.41;98.44
44920;BME280;30655;53.094;6.072;2023-02-04T00:13:02;103251.38;;;7.49;99.19
44920;BME280;30655;53.094;6.072;2023-02-04T00:15:29;103137.31;;;6.78;99.02
44920;BME280;30655;53.094;6.072;2023-02-04T00:17:57;103254.06;;;7.49;98.88
44920;BME280;30655;53.094;6.072;2023-02-04T00:20:24;103160.22;;;6.74;99.35
44920;BME280;30655;53.094;6.072;2023-02-04T00:22:51;103171.69;;;6.82;99.66
44920;BME280;30655;53.094;6.072;2023-02-04T00:25:19;103243.72;;;7.31;99.21
44920;BME280;30655;53.094;6.072;2023-02-04T00:27:46;103279.59;;;7.53;98.89
44920;BME280;30655;53.094;6.072;2023-02-04T00:30:13;103286.63;;;7.54;98.59
44920;BME280;30655;53.094;6.072;2023-02-04T00:32:40;103275.06;;;7.39;99.13
44920;BME280;30655;53.094;6.072;2023-02-04T00:35:07;103282.47;;;7.51;99.27
44920;BME280;30655;53.094;6.072;2023-02-04T00:37:35;103292.13;;;7.46;99.45
44920;BME280;30655;53.094;6.072;2023-02-04T00:40:02;103177.06;;;6.68;99.39
44920;BME280;30655;53.094;6.072;2023-02-04T00:42:33;103304.19;;;7.50;99.50
44920;BME280;30655;53.094;6.072;2023-02-04T00:45:00;103127.13;;;6.44;99.51
44920;BME280;30655;53.094;6.072;2023-02-04T00:47:27;103218.50;;;7.03;99.27
44920;BME280;30655;53.094;6.072;2023-02-04T00:49:54;103131.66;;;6.43;99.22
44920;BME280;30655;53.094;6.072;2023-02-04T00:52:20;103302.78;;;7.54;99.32
44920;BME280;30655;53.094;6.072;2023-02-04T00:54:47;103173.03;;;6.72;98.95
44920;BME280;30655;53.094;6.072;2023-02-04T00:57:14;103195.44;;;6.79;99.81
44920;BME280;30655;53.094;6.072;2023-02-04T00:59:45;103311.53;;;7.56;98.86
44920;BME280;30655;53.094;6.072;2023-02-04T01:02:12;103310.84;;;7.54;99.47
44920;BME280;30655;53.094;6.072;2023-02-04T01:04:40;103318.75;;;7.55;99.13
44920;BME280;30655;53.094;6.072;2023-02-04T01:07:08;103282.22;;;7.31;99.17
44920;BME280;30655;53.094;6.072;2023-02-04T01:09:34;103296.22;;;7.42;99.66
44920;BME280;30655;53.094;6.072;2023-02-04T01:12:02;103257.25;;;7.08;99.14
44920;BME280;30655;53.094;6.072;2023-02-04T01:14:29;103225.72;;;6.87;99.22
44920;BME280;30655;53.094;6.072;2023-02-04T01:16:57;103322.38;;;7.48;99.50
44920;BME280;30655;53.094;6.072;2023-02-04T01:19:25;103321.34;;;7.49;99.36
44920;BME280;30655;53.094;6.072;2023-02-04T01:21:52;103344.56;;;7.50;99.61
44920;BME280;30655;53.094;6.072;2023-02-04T01:24:19;103336.66;;;7.48;99.93
44920;BME280;30655;53.094;6.072;2023-02-04T01:26:46;103338.72;;;7.46;99.70
44920;BME280;30655;53.094;6.072;2023-02-04T01:29:12;103342.88;;;7.49;99.62
44920;BME280;30655;53.094;6.072;2023-02-04T01:31:39;103306.91;;;7.20;100.00
44920;BME280;30655;53.094;6.072;2023-02-04T01:34:11;103241.78;;;6.81;100.00
44920;BME280;30655;53.094;6.072;2023-02-04T01:36:38;103345.38;;;7.50;99.32
44920;BME280;30655;53.094;6.072;2023-02-04T01:39:05;103245.50;;;6.80;99.83
44920;BME280;30655;53.094;6.072;2023-02-04T01:41:32;103363.38;;;7.50;99.56
44920;BME280;30655;53.094;6.072;2023-02-04T01:43:59;103294.84;;;7.02;99.68
44920;BME280;30655;53.094;6.072;2023-02-04T01:46:25;103372.75;;;7.54;99.75
44920;BME280;30655;53.094;6.072;2023-02-04T01:48:53;103331.84;;;7.29;99.68
44920;BME280;30655;53.094;6.072;2023-02-04T01:51:24;103224.88;;;6.58;99.53
44920;BME280;30655;53.094;6.072;2023-02-04T01:53:51;103372.41;;;7.57;99.63
44920;BME280;30655;53.094;6.072;2023-02-04T01:56:19;103376.75;;;7.58;99.30
44920;BME280;30655;53.094;6.072;2023-02-04T01:58:49;103203.09;;;6.53;99.40
44920;BME280;30655;53.094;6.072;2023-02-04T02:01:33;103283.88;;;7.03;99.13
44920;BME280;30655;53.094;6.072;2023-02-04T02:04:01;103340.28;;;7.26;99.47
44920;BME280;30655;53.094;6.072;2023-02-04T02:06:29;103387.72;;;7.56;99.25
44920;BME280;30655;53.094;6.072;2023-02-04T02:08:58;103390.19;;;7.58;99.39
44920;BME280;30655;53.094;6.072;2023-02-04T02:11:25;103300.78;;;6.97;99.65
44920;BME280;30655;53.094;6.072;2023-02-04T02:13:53;103351.13;;;7.32;99.73
44920;BME280;30655;53.094;6.072;2023-02-04T02:16:20;103207.72;;;6.44;99.35
44920;BME280;30655;53.094;6.072;2023-02-04T02:18:47;103203.19;;;6.44;99.26
44920;BME280;30655;53.094;6.072;2023-02-04T02:21:17;103399.31;;;7.57;99.22
44920;BME280;30655;53.094;6.072;2023-02-04T02:23:49;103226.38;;;6.60;99.58
44920;BME280;30655;53.094;6.072;2023-02-04T02:26:18;103399.66;;;7.54;99.67
44920;BME280;30655;53.094;6.072;2023-02-04T02:28:46;103266.03;;;6.73;99.53
44920;BME280;30655;53.094;6.072;2023-02-04T02:31:15;103315.69;;;7.00;100.00
44920;BME280;30655;53.094;6.072;2023-02-04T02:33:43;103377.00;;;7.33;100.00
44920;BME280;30655;53.094;6.072;2023-02-04T02:36:11;103392.59;;;7.53;99.76
44920;BME280;30655;53.094;6.072;2023-02-04T02:38:38;103205.88;;;6.44;99.45
44920;BME280;30655;53.094;6.072;2023-02-04T02:41:07;103358.66;;;7.37;100.00
44920;BME280;30655;53.094;6.072;2023-02-04T02:43:34;103375.16;;;7.49;100.00
44920;BME280;30655;53.094;6.072;2023-02-04T02:46:02;103396.34;;;7.52;99.86
44920;BME280;30655;53.094;6.072;2023-02-04T02:48:29;103332.38;;;7.10;100.00
44920;BME280;30655;53.094;6.072;2023-02-04T02:50:56;103333.94;;;7.04;100.00
44920;BME280;30655;53.094;6.072;2023-02-04T02:53:23;103420.34;;;7.53;99.97
44920;BME280;30655;53.094;6.072;2023-02-04T02:55:51;103419.53;;;7.53;100.00
44920;BME280;30655;53.094;6.072;2023-02-04T02:58:27;103406.06;;;7.53;100.00
44920;BME280;30655;53.094;6.072;2023-02-04T03:00:55;103410.44;;;7.54;99.84
44920;BME280;30655;53.094;6.072;2023-02-04T03:03:24;103396.78;;;7.41;99.85
44920;BME280;30655;53.094;6.072;2023-02-04T03:05:56;103394.94;;;7.41;99.95
44920;BME280;30655;53.094;6.072;2023-02-04T03:08:25;103256.19;;;6.51;100.00
44920;BME280;30655;53.094;6.072;2023-02-04T03:10:52;103246.53;;;6.41;100.00
44920;BME280;30655;53.094;6.072;2023-02-04T03:13:20;103393.94;;;7.42;99.91
44920;BME280;30655;53.094;6.072;2023-02-04T03:15:48;103356.41;;;7.11;99.80
44920;BME280;30655;53.094;6.072;2023-02-04T03:18:18;103294.97;;;6.71;100.00
44920;BME280;30655;53.094;6.072;2023-02-04T03:20:46;103425.00;;;7.45;100.00
44920;BME280;30655;53.094;6.072;2023-02-04T03:23:16;103432.41;;;7.43;99.74
44920;BME280;30655;53.094;6.072;2023-02-04T03:25:43;103300.94;;;6.58;100.00
44920;BME280;30655;53.094;6.072;2023-02-04T03:28:10;103431.94;;;7.24;100.00
44920;BME280;30655;53.094;6.072;2023-02-04T03:30:37;103315.59;;;6.56;100.00
44920;BME280;30655;53.094;6.072;2023-02-04T03:33:05;103282.59;;;6.24;100.00
44920;BME280;30655;53.094;6.072;2023-02-04T03:35:32;103442.00;;;7.22;100.00
44920;BME280;30655;53.094;6.072;2023-02-04T03:37:59;103423.94;;;7.16;100.00
44920;BME280;30655;53.094;6.072;2023-02-04T03:40:25;103421.44;;;7.15;100.00
44920;BME280;30655;53.094;6.072;2023-02-04T03:42:55;103361.38;;;6.85;100.00
44920;BME280;30655;53.094;6.072;2023-02-04T03:45:22;103312.31;;;6.45;100.00
44920;BME280;30655;53.094;6.072;2023-02-04T03:47:49;103443.63;;;7.31;100.00
44920;BME280;30655;53.094;6.072;2023-02-04T03:50:19;103310.66;;;6.44;100.00
44920;BME280;30655;53.094;6.072;2023-02-04T03:52:46;103432.00;;;7.16;100.00
44920;BME280;30655;53.094;6.072;2023-02-04T03:55:13;103444.38;;;7.25;100.00
44920;BME280;30655;53.094;6.072;2023-02-04T03:57:40;103352.41;;;6.70;100.00
44920;BME280;30655;53.094;6.072;2023-02-04T04:00:08;103449.03;;;7.31;100.00
44920;BME280;30655;53.094;6.072;2023-02-04T04:02:35;103459.78;;;7.31;100.00
44920;BME280;30655;53.094;6.072;2023-02-04T04:05:02;103458.44;;;7.27;100.00
44920;BME280;30655;53.094;6.072;2023-02-04T04:07:30;103466.00;;;7.32;100.00
44920;BME280;30655;53.094;6.072;2023-02-04T04:09:57;103420.00;;;7.04;100.00
44920;BME280;30655;53.094;6.072;2023-02-04T04:12:24;103469.50;;;7.32;100.00
44920;BME280;30655;53.094;6.072;2023-02-04T04:14:51;103352.00;;;6.58;100.00
44920;BME280;30655;53.094;6.072;2023-02-04T04:17:18;103410.59;;;6.85;100.00
44920;BME280;30655;53.094;6.072;2023-02-04T04:19:45;103499.94;;;7.33;100.00
44920;BME280;30655;53.094;6.072;2023-02-04T04:22:12;103493.72;;;7.32;100.00
44920;BME280;30655;53.094;6.072;2023-02-04T04:24:41;103494.75;;;7.31;100.00
44920;BME280;30655;53.094;6.072;2023-02-04T04:27:08;103351.34;;;6.33;100.00
44920;BME280;30655;53.094;6.072;2023-02-04T04:29:34;103495.75;;;7.30;100.00
44920;BME280;30655;53.094;6.072;2023-02-04T04:32:01;103450.66;;;6.95;100.00
44920;BME280;30655;53.094;6.072;2023-02-04T04:34:28;103379.66;;;6.44;100.00
44920;BME280;30655;53.094;6.072;2023-02-04T04:36:55;103391.47;;;6.58;100.00
44920;BME280;30655;53.094;6.072;2023-02-04T04:39:22;103483.13;;;7.16;100.00
44920;BME280;30655;53.094;6.072;2023-02-04T04:41:51;103422.66;;;6.67;100.00
44920;BME280;30655;53.094;6.072;2023-02-04T04:44:24;103473.66;;;6.98;100.00
44920;BME280;30655;53.094;6.072;2023-02-04T04:46:51;103405.56;;;6.60;100.00
44920;BME280;30655;53.094;6.072;2023-02-04T04:49:18;103363.00;;;6.26;100.00
44920;BME280;30655;53.094;6.072;2023-02-04T04:51:45;103517.03;;;7.17;100.00
44920;BME280;30655;53.094;6.072;2023-02-04T04:54:12;103475.25;;;6.92;100.00
44920;BME280;30655;53.094;6.072;2023-02-04T04:56:39;103527.38;;;7.28;100.00
44920;BME280;30655;53.094;6.072;2023-02-04T04:59:10;103391.06;;;6.46;100.00
44920;BME280;30655;53.094;6.072;2023-02-04T05:01:37;103520.53;;;7.26;100.00
44920;BME280;30655;53.094;6.072;2023-02-04T05:04:04;103489.69;;;6.91;100.00
44920;BME280;30655;53.094;6.072;2023-02-04T05:06:31;103515.84;;;7.20;100.00
44920;BME280;30655;53.094;6.072;2023-02-04T05:08:57;103473.84;;;6.96;100.00
44920;BME280;30655;53.094;6.072;2023-02-04T05:11:24;103527.94;;;7.24;100.00
44920;BME280;30655;53.094;6.072;2023-02-04T05:13:51;103482.22;;;7.01;100.00
44920;BME280;30655;53.094;6.072;2023-02-04T05:16:20;103490.22;;;7.09;100.00
44920;BME280;30655;53.094;6.072;2023-02-04T05:18:47;103439.72;;;6.74;100.00
44920;BME280;30655;53.094;6.072;2023-02-04T05:21:14;103441.78;;;6.72;100.00
44920;BME280;30655;53.094;6.072;2023-02-04T05:23:41;103464.53;;;6.84;100.00
44920;BME280;30655;53.094;6.072;2023-02-04T05:26:08;103542.09;;;7.41;100.00
44920;BME280;30655;53.094;6.072;2023-02-04T05:28:36;103412.88;;;6.51;100.00
44920;BME280;30655;53.094;6.072;2023-02-04T05:31:03;103550.16;;;7.41;100.00
44920;BME280;30655;53.094;6.072;2023-02-04T05:33:32;103532.13;;;7.26;100.00
44920;BME280;30655;53.094;6.072;2023-02-04T05:35:59;103416.31;;;6.60;100.00
44920;BME280;30655;53.094;6.072;2023-02-04T05:38:25;103545.63;;;7.41;100.00
44920;BME280;30655;53.094;6.072;2023-02-04T05:40:53;103534.75;;;7.34;100.00
44920;BME280;30655;53.094;6.072;2023-02-04T05:43:22;103535.09;;;7.31;100.00
44920;BME280;30655;53.094;6.072;2023-02-04T05:45:52;103555.19;;;7.44;100.00
44920;BME280;30655;53.094;6.072;2023-02-04T05:48:21;103476.34;;;6.98;100.00
44920;BME280;30655;53.094;6.072;2023-02-04T05:50:50;103450.00;;;6.70;100.00
44920;BME280;30655;53.094;6.072;2023-02-04T05:53:17;103514.78;;;7.06;100.00
44920;BME280;30655;53.094;6.072;2023-02-04T05:55:43;103546.03;;;7.30;100.00
44920;BME280;30655;53.094;6.072;2023-02-04T05:58:10;103378.94;;;6.27;100.00
44920;BME280;30655;53.094;6.072;2023-02-04T06:00:38;103559.63;;;7.37;100.00
44920;BME280;30655;53.094;6.072;2023-02-04T06:03:05;103514.66;;;7.00;100.00
44920;BME280;30655;53.094;6.072;2023-02-04T06:05:32;103571.53;;;7.42;100.00
44920;BME280;30655;53.094;6.072;2023-02-04T06:08:16;103579.75;;;7.41;100.00
44920;BME280;30655;53.094;6.072;2023-02-04T06:10:44;103453.56;;;6.63;100.00
44920;BME280;30655;53.094;6.072;2023-02-04T06:13:11;103582.47;;;7.41;100.00
44920;BME280;30655;53.094;6.072;2023-02-04T06:15:38;103587.00;;;7.40;100.00
44920;BME280;30655;53.094;6.072;2023-02-04T06:18:05;103495.53;;;6.72;100.00
44920;BME280;30655;53.094;6.072;2023-02-04T06:20:32;103592.53;;;7.39;100.00
44920;BME280;30655;53.094;6.072;2023-02-04T06:23:00;103569.66;;;7.20;100.00
44920;BME280;30655;53.094;6.072;2023-02-04T06:25:29;103466.06;;;6.56;100.00
44920;BME280;30655;53.094;6.072;2023-02-04T06:27:56;103521.44;;;6.87;100.00
44920;BME280;30655;53.094;6.072;2023-02-04T06:30:23;103588.63;;;7.26;100.00
44920;BME280;30655;53.094;6.072;2023-02-04T06:32:50;103613.44;;;7.37;100.00
44920;BME280;30655;53.094;6.072;2023-02-04T06:35:17;103595.00;;;7.25;100.00
44920;BME280;30655;53.094;6.072;2023-02-04T06:37:44;103555.31;;;7.05;100.00
44920;BME280;30655;53.094;6.072;2023-02-04T06:40:11;103614.44;;;7.35;100.00
44920;BME280;30655;53.094;6.072;2023-02-04T06:42:40;103620.00;;;7.34;100.00
44920;BME280;30655;53.094;6.072;2023-02-04T06:45:07;103581.50;;;7.11;100.00
44920;BME280;30655;53.094;6.072;2023-02-04T06:47:34;103568.44;;;7.00;100.00
44920;BME280;30655;53.094;6.072;2023-02-04T06:50:01;103630.63;;;7.27;100.00
44920;BME280;30655;53.094;6.072;2023-02-04T06:52:28;103537.81;;;6.78;100.00
44920;BME280;30655;53.094;6.072;2023-02-04T06:54:56;103589.94;;;7.00;100.00
44920;BME280;30655;53.094;6.072;2023-02-04T06:57:23;103430.91;;;6.03;100.00
44920;BME280;30655;53.094;6.072;2023-02-04T06:59:53;103510.84;;;6.32;100.00
44920;BME280;30655;53.094;6.072;2023-02-04T07:02:20;103641.13;;;7.14;100.00
44920;BME280;30655;53.094;6.072;2023-02-04T07:04:47;103617.22;;;6.97;100.00
44920;BME280;30655;53.094;6.072;2023-02-04T07:07:14;103643.88;;;7.06;100.00
44920;BME280;30655;53.094;6.072;2023-02-04T07:09:41;103649.59;;;7.03;100.00
44920;BME280;30655;53.094;6.072;2023-02-04T07:12:08;103662.38;;;7.01;100.00
44920;BME280;30655;53.094;6.072;2023-02-04T07:14:34;103634.88;;;6.91;100.00
44920;BME280;30655;53.094;6.072;2023-02-04T07:17:04;103592.84;;;6.59;100.00
44920;BME280;30655;53.094;6.072;2023-02-04T07:19:31;103657.72;;;6.95;100.00
44920;BME280;30655;53.094;6.072;2023-02-04T07:21:59;103558.84;;;6.35;100.00
44920;BME280;30655;53.094;6.072;2023-02-04T07:24:26;103636.25;;;6.79;100.00
44920;BME280;30655;53.094;6.072;2023-02-04T07:26:53;103629.94;;;6.72;100.00
44920;BME280;30655;53.094;6.072;2023-02-04T07:29:21;103553.00;;;6.24;100.00
44920;BME280;30655;53.094;6.072;2023-02-04T07:31:51;103672.63;;;6.98;100.00
44920;BME280;30655;53.094;6.072;2023-02-04T07:34:20;103683.22;;;6.99;100.00
44920;BME280;30655;53.094;6.072;2023-02-04T07:36:47;103479.47;;;5.78;100.00
44920;BME280;30655;53.094;6.072;2023-02-04T07:39:14;103619.06;;;6.57;100.00
44920;BME280;30655;53.094;6.072;2023-02-04T07:41:41;103653.44;;;6.70;100.00
44920;BME280;30655;53.094;6.072;2023-02-04T07:44:17;103549.22;;;6.02;100.00
44920;BME280;30655;53.094;6.072;2023-02-04T07:46:44;103575.66;;;6.29;100.00
44920;BME280;30655;53.094;6.072;2023-02-04T07:49:11;103678.09;;;6.81;100.00
44920;BME280;30655;53.094;6.072;2023-02-04T07:51:40;103590.06;;;6.36;100.00
44920;BME280;30655;53.094;6.072;2023-02-04T07:54:07;103620.41;;;6.53;100.00
44920;BME280;30655;53.094;6.072;2023-02-04T07:56:34;103513.00;;;5.90;100.00
44920;BME280;30655;53.094;6.072;2023-02-04T07:59:01;103604.19;;;6.30;100.00
44920;BME280;30655;53.094;6.072;2023-02-04T08:01:28;103519.00;;;5.84;100.00
44920;BME280;30655;53.094;6.072;2023-02-04T08:03:55;103697.34;;;7.01;100.00
44920;BME280;30655;53.094;6.072;2023-02-04T08:06:22;103711.13;;;7.06;100.00
44920;BME280;30655;53.094;6.072;2023-02-04T08:08:50;103579.53;;;6.27;100.00
44920;BME280;30655;53.094;6.072;2023-02-04T08:11:18;103589.09;;;6.29;100.00
44920;BME280;30655;53.094;6.072;2023-02-04T08:13:45;103669.53;;;6.78;100.00
44920;BME280;30655;53.094;6.072;2023-02-04T08:16:12;103633.72;;;6.46;100.00
44920;BME280;30655;53.094;6.072;2023-02-04T08:18:39;103596.16;;;6.22;100.00
44920;BME280;30655;53.094;6.072;2023-02-04T08:21:06;103741.38;;;7.00;100.00
44920;BME280;30655;53.094;6.072;2023-02-04T08:23:33;103728.47;;;6.96;100.00
44920;BME280;30655;53.094;6.072;2023-02-04T08:26:02;103744.59;;;6.96;100.00
44920;BME280;30655;53.094;6.072;2023-02-04T08:28:29;103628.41;;;6.22;100.00
44920;BME280;30655;53.094;6.072;2023-02-04T08:30:55;103615.31;;;6.11;100.00
44920;BME280;30655;53.094;6.072;2023-02-04T08:33:22;103699.50;;;6.59;99.98
44920;BME280;30655;53.094;6.072;2023-02-04T08:35:49;103697.84;;;6.49;99.28
44920;BME280;30655;53.094;6.072;2023-02-04T08:38:16;103739.59;;;6.68;99.87
44920;BME280;30655;53.094;6.072;2023-02-04T08:40:43;103752.38;;;6.74;99.63
44920;BME280;30655;53.094;6.072;2023-02-04T08:43:12;103660.13;;;6.11;99.70
44920;BME280;30655;53.094;6.072;2023-02-04T08:45:38;103671.34;;;6.14;99.38
44920;BME280;30655;53.094;6.072;2023-02-04T08:48:07;103748.03;;;6.65;99.39
44920;BME280;30655;53.094;6.072;2023-02-04T08:50:34;103752.22;;;6.68;99.84
44920;BME280;30655;53.094;6.072;2023-02-04T08:53:04;103612.78;;;5.85;99.30
44920;BME280;30655;53.094;6.072;2023-02-04T08:55:31;103605.94;;;5.83;99.48
44920;BME280;30655;53.094;6.072;2023-02-04T08:57:58;103762.13;;;6.75;100.00
44920;BME280;30655;53.094;6.072;2023-02-04T09:00:26;103698.88;;;6.40;99.86
44920;BME280;30655;53.094;6.072;2023-02-04T09:02:53;103684.09;;;6.36;99.50
44920;BME280;30655;53.094;6.072;2023-02-04T09:05:20;103714.44;;;6.61;100.00
44920;BME280;30655;53.094;6.072;2023-02-04T09:07:47;103644.16;;;6.25;99.74
44920;BME280;30655;53.094;6.072;2023-02-04T09:10:14;103780.03;;;7.07;100.00
44920;BME280;30655;53.094;6.072;2023-02-04T09:12:44;103773.09;;;7.13;100.00
44920;BME280;30655;53.094;6.072;2023-02-04T09:15:13;103769.72;;;7.19;99.96
44920;BME280;30655;53.094;6.072;2023-02-04T09:17:41;103669.94;;;6.59;99.73
44920;BME280;30655;53.094;6.072;2023-02-04T09:20:09;103745.56;;;7.11;100.00
44920;BME280;30655;53.094;6.072;2023-02-04T09:22:39;103682.00;;;6.71;99.89
44920;BME280;30655;53.094;6.072;2023-02-04T09:25:07;103798.78;;;7.31;98.66
44920;BME280;30655;53.094;6.072;2023-02-04T09:27:38;103795.03;;;7.32;98.65
44920;BME280;30655;53.094;6.072;2023-02-04T09:30:05;103792.34;;;7.41;98.88
44920;BME280;30655;53.094;6.072;2023-02-04T09:32:32;103683.81;;;6.78;98.61
44920;BME280;30655;53.094;6.072;2023-02-04T09:35:01;103797.84;;;7.47;98.21
44920;BME280;30655;53.094;6.072;2023-02-04T09:37:28;103795.38;;;7.38;98.10
44920;BME280;30655;53.094;6.072;2023-02-04T09:39:55;103814.13;;;7.54;97.66
44920;BME280;30655;53.094;6.072;2023-02-04T09:42:24;103730.59;;;7.08;97.66
44920;BME280;30655;53.094;6.072;2023-02-04T09:44:51;103711.84;;;6.92;97.48
44920;BME280;30655;53.094;6.072;2023-02-04T09:47:21;103800.81;;;7.60;97.85
44920;BME280;30655;53.094;6.072;2023-02-04T09:49:49;103805.41;;;7.52;97.26
44920;BME280;30655;53.094;6.072;2023-02-04T09:52:17;103703.72;;;7.00;97.51
44920;BME280;30655;53.094;6.072;2023-02-04T09:54:45;103833.16;;;7.83;97.43
44920;BME280;30655;53.094;6.072;2023-02-04T09:57:14;103759.34;;;7.47;96.19
44920;BME280;30655;53.094;6.072;2023-02-04T09:59:42;103671.19;;;6.87;95.93
44920;BME280;30655;53.094;6.072;2023-02-04T10:02:20;103735.69;;;7.34;95.46
44920;BME280;30655;53.094;6.072;2023-02-04T10:04:48;103764.38;;;7.50;92.49
44920;BME280;30655;53.094;6.072;2023-02-04T10:07:21;103686.41;;;7.03;93.55
44920;BME280;30655;53.094;6.072;2023-02-04T10:09:48;103839.69;;;7.97;93.18
44920;BME280;30655;53.094;6.072;2023-02-04T10:12:19;103830.88;;;8.03;93.96
44920;BME280;30655;53.094;6.072;2023-02-04T10:14:46;103766.31;;;7.64;94.07
44920;BME280;30655;53.094;6.072;2023-02-04T10:17:15;103795.78;;;7.88;93.43
44920;BME280;30655;53.094;6.072;2023-02-04T10:19:43;103844.53;;;8.24;94.22
44920;BME280;30655;53.094;6.072;2023-02-04T10:22:17;103728.28;;;7.67;93.84
44920;BME280;30655;53.094;6.072;2023-02-04T10:24:45;103798.22;;;8.06;92.92
44920;BME280;30655;53.094;6.072;2023-02-04T10:27:15;103827.16;;;8.35;92.31
44920;BME280;30655;53.094;6.072;2023-02-04T10:29:56;103669.41;;;7.41;92.32
44920;BME280;30655;53.094;6.072;2023-02-04T10:32:25;103835.13;;;8.51;91.89
44920;BME280;30655;53.094;6.072;2023-02-04T10:34:56;103794.00;;;8.26;90.67
44920;BME280;30655;53.094;6.072;2023-02-04T10:37:28;103829.34;;;8.54;90.92
44920;BME280;30655;53.094;6.072;2023-02-04T10:39:55;103802.19;;;8.41;91.43
44920;BME280;30655;53.094;6.072;2023-02-04T10:42:24;103809.72;;;8.45;91.23
44920;BME280;30655;53.094;6.072;2023-02-04T10:44:52;103801.94;;;8.50;90.79
44920;BME280;30655;53.094;6.072;2023-02-04T10:47:22;103658.63;;;7.64;90.17
44920;BME280;30655;53.094;6.072;2023-02-04T10:49:59;103712.97;;;7.90;88.52
44920;BME280;30655;53.094;6.072;2023-02-04T10:52:37;103851.28;;;8.88;89.66
44920;BME280;30655;53.094;6.072;2023-02-04T10:55:07;103861.53;;;8.93;89.18
44920;BME280;30655;53.094;6.072;2023-02-04T10:57:38;103741.28;;;8.32;89.06
44920;BME280;30655;53.094;6.072;2023-02-04T11:00:17;103864.78;;;9.03;88.55
44920;BME280;30655;53.094;6.072;2023-02-04T11:02:58;103686.75;;;8.07;88.47
44920;BME280;30655;53.094;6.072;2023-02-04T11:05:31;103786.25;;;8.83;88.41
44920;BME280;30655;53.094;6.072;2023-02-04T11:08:43;103857.00;;;9.23;86.55
44920;BME280;30655;53.094;6.072;2023-02-04T11:11:28;103848.00;;;9.30;87.56
44920;BME280;30655;53.094;6.072;2023-02-04T11:14:27;103662.63;;;8.28;87.21
44920;BME280;30655;53.094;6.072;2023-02-04T11:17:05;103851.59;;;9.52;87.74
44920;BME280;30655;53.094;6.072;2023-02-04T11:19:37;103648.16;;;8.44;87.72
44920;BME280;30655;53.094;6.072;2023-02-04T11:22:20;103785.53;;;9.33;87.69
44920;BME280;30655;53.094;6.072;2023-02-04T11:25:38;103719.50;;;9.00;84.00
44920;BME280;30655;53.094;6.072;2023-02-04T11:31:42;103793.66;;;9.69;86.56
44920;BME280;30655;53.094;6.072;2023-02-04T11:34:46;103858.28;;;10.07;86.49
44920;BME280;30655;53.094;6.072;2023-02-04T11:38:03;103840.31;;;10.14;85.19
44920;BME280;30655;53.094;6.072;2023-02-04T11:41:01;103663.44;;;9.17;85.75
44920;BME280;30655;53.094;6.072;2023-02-04T11:43:32;103734.16;;;9.63;86.04
44920;BME280;30655;53.094;6.072;2023-02-04T11:46:12;103674.16;;;9.25;84.65
44920;BME280;30655;53.094;6.072;2023-02-04T11:48:41;103848.00;;;10.31;83.06
44920;BME280;30655;53.094;6.072;2023-02-04T11:51:14;103768.22;;;10.00;85.25
44920;BME280;30655;53.094;6.072;2023-02-04T11:53:42;103669.41;;;9.48;84.80
44920;BME280;30655;53.094;6.072;2023-02-04T11:56:18;103746.94;;;9.90;83.25
44920;BME280;30655;53.094;6.072;2023-02-04T11:58:54;103827.28;;;10.66;84.09
44920;BME280;30655;53.094;6.072;2023-02-04T12:01:32;103755.88;;;10.33;82.10
44920;BME280;30655;53.094;6.072;2023-02-04T12:04:04;103757.47;;;10.49;81.92
44920;BME280;30655;53.094;6.072;2023-02-04T12:06:40;103663.44;;;9.95;80.20
44920;BME280;30655;53.094;6.072;2023-02-04T12:09:31;103819.78;;;10.90;78.31
44920;BME280;30655;53.094;6.072;2023-02-04T12:12:05;103752.84;;;10.43;78.72
44920;BME280;30655;53.094;6.072;2023-02-04T12:14:45;103826.06;;;10.97;79.35
44920;BME280;30655;53.094;6.072;2023-02-04T12:17:51;103804.34;;;10.84;80.15
44920;BME280;30655;53.094;6.072;2023-02-04T12:20:51;103781.19;;;11.09;79.22
44920;BME280;30655;53.094;6.072;2023-02-04T12:23:30;103837.09;;;11.64;78.06
44920;BME280;30655;53.094;6.072;2023-02-04T12:26:07;103769.84;;;11.33;77.60
44920;BME280;30655;53.094;6.072;2023-02-04T12:28:37;103826.13;;;11.79;77.35
44920;BME280;30655;53.094;6.072;2023-02-04T12:31:13;103824.81;;;11.68;77.13
44920;BME280;30655;53.094;6.072;2023-02-04T12:33:54;103761.41;;;11.49;77.69
44920;BME280;30655;53.094;6.072;2023-02-04T12:36:45;103836.06;;;12.19;78.22
44920;BME280;30655;53.094;6.072;2023-02-04T12:39:13;103782.22;;;12.16;76.09
44920;BME280;30655;53.094;6.072;2023-02-04T12:42:06;103594.88;;;11.32;75.68
44920;BME280;30655;53.094;6.072;2023-02-04T12:44:46;103822.50;;;12.98;74.89
44920;BME280;30655;53.094;6.072;2023-02-04T12:47:16;103709.41;;;12.46;73.35
44920;BME280;30655;53.094;6.072;2023-02-04T12:50:22;103816.69;;;12.75;66.12
44920;BME280;30655;53.094;6.072;2023-02-04T12:52:59;103813.34;;;12.53;70.62
44920;BME280;30655;53.094;6.072;2023-02-04T12:55:40;103795.59;;;12.24;71.74
44920;BME280;30655;53.094;6.072;2023-02-04T12:58:11;103638.28;;;11.72;72.14
44920;BME280;30655;53.094;6.072;2023-02-04T13:00:54;103678.97;;;12.44;68.39
44920;BME280;30655;53.094;6.072;2023-02-04T13:03:23;103775.91;;;13.08;69.11
44920;BME280;30655;53.094;6.072;2023-02-04T13:05:50;103641.63;;;12.06;68.14
44920;BME280;30655;53.094;6.072;2023-02-04T13:08:24;103631.84;;;11.73;68.59
44920;BME280;30655;53.094;6.072;2023-02-04T13:11:08;103777.88;;;12.55;68.93
44920;BME280;30655;53.094;6.072;2023-02-04T13:13:43;103774.09;;;12.56;71.29